AFR74 LFPG-TNCM
Flight info
| Callsign | AFR74 |
|---|---|
| Flight time | 1h 15m |
| Altitude | 38000 |
| Route | LGL UN491 UPALO/N0473F370 DCT FEJAC DCT REGHI/M082F380 DCT ETIKI DCT 46N020W 42N030W 36N040W/M082F400 33N045W 30N050W 26N055W DCT RKDIA M576 PJM |
| Aircraft | B772/H-SDE2E3FGHIJ5LORVWXY/LB1D1 |
Departure
| Time | 2026-05-03 20:16 |
|---|---|
| Airport | Charles de Gaulle International Airport (LFPG) |
Arrival
| Time | 2026-05-03 21:32 |
|---|---|
| Airport | Princess Juliana International Airport (TNCM) |
| Time | Latitude | Longitude | Altitude | Speed | Heading |
|---|---|---|---|---|---|
| 2026-05-03 20:15 | 48.99889 | 2.59663 | 361 ft | 15 kts | 176° |
| 2026-05-03 20:15 | 48.99796 | 2.59575 | 366 ft | 20 kts | 252° |
| 2026-05-03 20:15 | 48.99776 | 2.59180 | 360 ft | 71 kts | 266° |
| 2026-05-03 20:15 | 48.99718 | 2.58063 | 361 ft | 138 kts | 265° |
| 2026-05-03 20:16 | 48.99624 | 2.56287 | 378 ft | 195 kts | 264° |
| 2026-05-03 20:16 | 48.99523 | 2.54200 | 1110 ft | 192 kts | 264° |
| 2026-05-03 20:16 | 48.99439 | 2.52228 | 2172 ft | 183 kts | 264° |
| 2026-05-03 20:16 | 48.99335 | 2.50283 | 3026 ft | 188 kts | 263° |
| 2026-05-03 20:17 | 48.99210 | 2.48245 | 3681 ft | 197 kts | 262° |
| 2026-05-03 20:17 | 48.99067 | 2.46134 | 4395 ft | 203 kts | 262° |
| 2026-05-03 20:17 | 48.98919 | 2.43999 | 5196 ft | 206 kts | 262° |
| 2026-05-03 20:17 | 48.98773 | 2.41716 | 5608 ft | 227 kts | 263° |
| 2026-05-03 20:18 | 48.98682 | 2.40098 | 5985 ft | 236 kts | 263° |
| 2026-05-03 20:18 | 48.98532 | 2.36789 | 7166 ft | 238 kts | 264° |
| 2026-05-03 20:18 | 48.98427 | 2.34241 | 7968 ft | 246 kts | 264° |
| 2026-05-03 20:18 | 48.98323 | 2.31605 | 8605 ft | 250 kts | 264° |
| 2026-05-03 20:19 | 48.98252 | 2.29832 | 9104 ft | 254 kts | 264° |
| 2026-05-03 20:19 | 48.98148 | 2.27795 | 9578 ft | 265 kts | 262° |
| 2026-05-03 20:19 | 48.98000 | 2.25498 | 9894 ft | 281 kts | 262° |
| 2026-05-03 20:19 | 48.97798 | 2.22432 | 10323 ft | 299 kts | 262° |
| 2026-05-03 20:20 | 48.97749 | 2.21667 | 10424 ft | 304 kts | 262° |
| 2026-05-03 20:20 | 48.97585 | 2.19090 | 10740 ft | 318 kts | 262° |
| 2026-05-03 20:20 | 48.97372 | 2.15601 | 11166 ft | 335 kts | 263° |
| 2026-05-03 20:20 | 48.97163 | 2.12081 | 11545 ft | 339 kts | 263° |
| 2026-05-03 20:21 | 48.96955 | 2.08497 | 11929 ft | 341 kts | 263° |
| 2026-05-03 20:21 | 48.96746 | 2.04887 | 12312 ft | 343 kts | 263° |
| 2026-05-03 20:21 | 48.96532 | 2.01214 | 12736 ft | 356 kts | 263° |
| 2026-05-03 20:21 | 48.96307 | 1.97374 | 13152 ft | 370 kts | 263° |
| 2026-05-03 20:22 | 48.96075 | 1.93423 | 13592 ft | 382 kts | 262° |
| 2026-05-03 20:22 | 48.95833 | 1.89349 | 13967 ft | 387 kts | 262° |
| 2026-05-03 20:22 | 48.95589 | 1.85250 | 14343 ft | 390 kts | 262° |
| 2026-05-03 20:22 | 48.95341 | 1.81124 | 14711 ft | 392 kts | 262° |
| 2026-05-03 20:23 | 48.95090 | 1.76988 | 15075 ft | 393 kts | 262° |
| 2026-05-03 20:23 | 48.94837 | 1.72841 | 15452 ft | 394 kts | 262° |
| 2026-05-03 20:23 | 48.94583 | 1.68683 | 15830 ft | 396 kts | 262° |
| 2026-05-03 20:23 | 48.94325 | 1.64501 | 16219 ft | 398 kts | 262° |
| 2026-05-03 20:24 | 48.94065 | 1.60305 | 16596 ft | 401 kts | 262° |
| 2026-05-03 20:24 | 48.93800 | 1.56058 | 16994 ft | 404 kts | 262° |
| 2026-05-03 20:24 | 48.93531 | 1.51787 | 17397 ft | 407 kts | 262° |
| 2026-05-03 20:24 | 48.93263 | 1.47537 | 17810 ft | 410 kts | 261° |
| 2026-05-03 20:25 | 48.92988 | 1.43197 | 18223 ft | 413 kts | 261° |
| 2026-05-03 20:25 | 48.92709 | 1.38831 | 18578 ft | 416 kts | 261° |
| 2026-05-03 20:25 | 48.92428 | 1.34447 | 18940 ft | 418 kts | 261° |
| 2026-05-03 20:25 | 48.92144 | 1.30029 | 19305 ft | 419 kts | 261° |
| 2026-05-03 20:26 | 48.91856 | 1.25602 | 19679 ft | 421 kts | 261° |
| 2026-05-03 20:26 | 48.91567 | 1.21167 | 20058 ft | 422 kts | 261° |
| 2026-05-03 20:26 | 48.91279 | 1.16785 | 20427 ft | 423 kts | 261° |
| 2026-05-03 20:26 | 48.90985 | 1.12332 | 20808 ft | 423 kts | 261° |
| 2026-05-03 20:27 | 48.90688 | 1.07867 | 21195 ft | 425 kts | 261° |
| 2026-05-03 20:27 | 48.90388 | 1.03390 | 21583 ft | 425 kts | 261° |
| 2026-05-03 20:27 | 48.90087 | 0.98916 | 21980 ft | 426 kts | 261° |
| 2026-05-03 20:27 | 48.89785 | 0.94444 | 22377 ft | 426 kts | 261° |
| 2026-05-03 20:28 | 48.89481 | 0.89959 | 22773 ft | 426 kts | 261° |
| 2026-05-03 20:28 | 48.89175 | 0.85490 | 23192 ft | 425 kts | 260° |
| 2026-05-03 20:28 | 48.88790 | 0.81069 | 23572 ft | 419 kts | 253° |
| 2026-05-03 20:28 | 48.87761 | 0.76985 | 23894 ft | 407 kts | 238° |
| 2026-05-03 20:29 | 48.86331 | 0.73321 | 24253 ft | 403 kts | 238° |
| 2026-05-03 20:29 | 48.84969 | 0.69605 | 24602 ft | 402 kts | 239° |
| 2026-05-03 20:29 | 48.83666 | 0.65913 | 24966 ft | 401 kts | 239° |
| 2026-05-03 20:29 | 48.82356 | 0.62187 | 25325 ft | 399 kts | 239° |
| 2026-05-03 20:30 | 48.81046 | 0.58478 | 25691 ft | 396 kts | 239° |
| 2026-05-03 20:30 | 48.79857 | 0.54738 | 26026 ft | 394 kts | 248° |
| 2026-05-03 20:30 | 48.79294 | 0.50660 | 26417 ft | 398 kts | 262° |
| 2026-05-03 20:30 | 48.79380 | 0.46446 | 26794 ft | 399 kts | 270° |
| 2026-05-03 20:31 | 48.79664 | 0.42248 | 27184 ft | 396 kts | 270° |
| 2026-05-03 20:31 | 48.79956 | 0.38168 | 27574 ft | 393 kts | 270° |
| 2026-05-03 20:31 | 48.80246 | 0.34053 | 27949 ft | 390 kts | 270° |
| 2026-05-03 20:31 | 48.80522 | 0.29977 | 28334 ft | 385 kts | 269° |
| 2026-05-03 20:32 | 48.80783 | 0.25953 | 28743 ft | 381 kts | 269° |
| 2026-05-03 20:32 | 48.81033 | 0.21974 | 29135 ft | 376 kts | 269° |
| 2026-05-03 20:32 | 48.81275 | 0.18043 | 29537 ft | 371 kts | 268° |
| 2026-05-03 20:32 | 48.81512 | 0.14163 | 29945 ft | 365 kts | 268° |
| 2026-05-03 20:33 | 48.81742 | 0.10353 | 30301 ft | 359 kts | 268° |
| 2026-05-03 20:33 | 48.81966 | 0.06590 | 30556 ft | 357 kts | 268° |
| 2026-05-03 20:33 | 48.82184 | 0.02870 | 30636 ft | 362 kts | 268° |
| 2026-05-03 20:33 | 48.82406 | -0.01016 | 30381 ft | 377 kts | 268° |
| 2026-05-03 20:34 | 48.82637 | -0.05022 | 30415 ft | 382 kts | 268° |
| 2026-05-03 20:34 | 48.82875 | -0.09041 | 30697 ft | 382 kts | 268° |
| 2026-05-03 20:34 | 48.83111 | -0.13068 | 30840 ft | 386 kts | 268° |
| 2026-05-03 20:34 | 48.83553 | -0.20678 | 31104 ft | 392 kts | 268° |
| 2026-05-03 20:35 | 48.84019 | -0.28980 | 31394 ft | 398 kts | 268° |
| 2026-05-03 20:35 | 48.84466 | -0.37420 | 31647 ft | 404 kts | 268° |
| 2026-05-03 20:35 | 48.84916 | -0.45996 | 31929 ft | 410 kts | 268° |
| 2026-05-03 20:35 | 48.85362 | -0.54574 | 32266 ft | 414 kts | 268° |
| 2026-05-03 20:36 | 48.85811 | -0.63330 | 32532 ft | 419 kts | 268° |
| 2026-05-03 20:36 | 48.86261 | -0.72211 | 32788 ft | 424 kts | 268° |
| 2026-05-03 20:36 | 48.86709 | -0.81207 | 33072 ft | 427 kts | 268° |
| 2026-05-03 20:36 | 48.87154 | -0.90271 | 33368 ft | 431 kts | 268° |
| 2026-05-03 20:37 | 48.87594 | -0.99380 | 33694 ft | 433 kts | 268° |
| 2026-05-03 20:37 | 48.88028 | -1.08528 | 33973 ft | 435 kts | 268° |
| 2026-05-03 20:37 | 48.88458 | -1.17750 | 34198 ft | 438 kts | 268° |
| 2026-05-03 20:37 | 48.88877 | -1.26886 | 34449 ft | 439 kts | 268° |
| 2026-05-03 20:38 | 48.89296 | -1.36189 | 34643 ft | 442 kts | 268° |
| 2026-05-03 20:38 | 48.89711 | -1.45540 | 34864 ft | 444 kts | 269° |
| 2026-05-03 20:38 | 48.90122 | -1.54942 | 35113 ft | 445 kts | 269° |
| 2026-05-03 20:38 | 48.90534 | -1.64304 | 35370 ft | 445 kts | 269° |
| 2026-05-03 20:39 | 48.89901 | -1.82525 | 35452 ft | 443 kts | 252° |
| 2026-05-03 20:39 | 48.86891 | -2.00734 | 35820 ft | 444 kts | 252° |
| 2026-05-03 20:39 | 48.83921 | -2.18727 | 36784 ft | 428 kts | 252° |
| 2026-05-03 20:39 | 48.80880 | -2.36789 | 35873 ft | 458 kts | 254° |
| 2026-05-03 20:40 | 48.77867 | -2.55544 | 36205 ft | 456 kts | 253° |
| 2026-05-03 20:40 | 48.75510 | -2.74459 | 36516 ft | 457 kts | 257° |
| 2026-05-03 20:40 | 48.73279 | -2.93332 | 36624 ft | 459 kts | 257° |
| 2026-05-03 20:41 | 48.68565 | -3.31767 | 36417 ft | 472 kts | 257° |
| 2026-05-03 20:41 | 48.66075 | -3.51635 | 35978 ft | 484 kts | 257° |
| 2026-05-03 20:41 | 48.63525 | -3.71708 | 35869 ft | 486 kts | 256° |
| 2026-05-03 20:42 | 48.58347 | -4.11559 | 35973 ft | 484 kts | 256° |
| 2026-05-03 20:42 | 48.53000 | -4.51554 | 35964 ft | 487 kts | 256° |
| 2026-05-03 20:43 | 48.47491 | -4.91644 | 35947 ft | 488 kts | 256° |
| 2026-05-03 20:43 | 48.41824 | -5.31777 | 35953 ft | 490 kts | 256° |
| 2026-05-03 20:44 | 48.36045 | -5.71632 | 35953 ft | 491 kts | 256° |
| 2026-05-03 20:44 | 48.30079 | -6.11722 | 35956 ft | 492 kts | 256° |
| 2026-05-03 20:45 | 48.23949 | -6.51887 | 35955 ft | 493 kts | 256° |
| 2026-05-03 20:45 | 48.17669 | -6.92016 | 35954 ft | 494 kts | 256° |
| 2026-05-03 20:46 | 48.11283 | -7.31840 | 35955 ft | 495 kts | 256° |
| 2026-05-03 20:46 | 48.04713 | -7.71853 | 35956 ft | 496 kts | 255° |
| 2026-05-03 20:47 | 47.99936 | -8.12307 | 35945 ft | 498 kts | 270° |
| 2026-05-03 20:47 | 48.00047 | -8.53540 | 36021 ft | 497 kts | 269° |
| 2026-05-03 20:47 | 47.99940 | -8.74254 | 35902 ft | 500 kts | 265° |
| 2026-05-03 20:48 | 47.97604 | -8.94651 | 35988 ft | 496 kts | 258° |
| 2026-05-03 20:48 | 47.90851 | -9.47203 | 35974 ft | 497 kts | 259° |
| 2026-05-03 20:49 | 47.68599 | -11.08843 | 35986 ft | 498 kts | 259° |
| 2026-05-03 20:49 | 47.44226 | -12.68289 | 36050 ft | 499 kts | 259° |
| 2026-05-03 20:50 | 47.17318 | -14.28097 | 36117 ft | 501 kts | 259° |
| 2026-05-03 20:50 | 46.88248 | -15.86105 | 36137 ft | 501 kts | 259° |
| 2026-05-03 20:51 | 46.57088 | -17.42053 | 36177 ft | 499 kts | 258° |
| 2026-05-03 20:51 | 46.24151 | -18.94681 | 36225 ft | 498 kts | 257° |
| 2026-05-03 20:52 | 45.85220 | -20.44651 | 36408 ft | 510 kts | 246° |
| 2026-05-03 20:52 | 45.60723 | -21.16146 | 36247 ft | 501 kts | 249° |
| 2026-05-03 20:52 | 45.35724 | -21.86990 | 36268 ft | 498 kts | 248° |
| 2026-05-03 20:53 | 44.85002 | -23.25886 | 36286 ft | 494 kts | 246° |
| 2026-05-03 20:53 | 44.32908 | -24.61568 | 36329 ft | 493 kts | 244° |
| 2026-05-03 20:54 | 43.79319 | -25.94648 | 36355 ft | 491 kts | 242° |
| 2026-05-03 20:54 | 42.96558 | -27.88718 | 36369 ft | 490 kts | 239° |
| 2026-05-03 20:55 | 42.39870 | -29.14572 | 36370 ft | 493 kts | 237° |
| 2026-05-03 20:55 | 41.80139 | -30.38784 | 36402 ft | 494 kts | 233° |
| 2026-05-03 20:56 | 41.16688 | -31.59310 | 36325 ft | 496 kts | 235° |
| 2026-05-03 20:56 | 40.52111 | -32.77298 | 36318 ft | 496 kts | 236° |
| 2026-05-03 20:57 | 39.86325 | -33.93158 | 36286 ft | 495 kts | 235° |
| 2026-05-03 20:57 | 39.19691 | -35.06286 | 36249 ft | 491 kts | 234° |
| 2026-05-03 20:58 | 38.52907 | -36.15749 | 36203 ft | 489 kts | 232° |
| 2026-05-03 20:58 | 37.84396 | -37.24303 | 36124 ft | 499 kts | 233° |
| 2026-05-03 20:59 | 37.12590 | -38.34323 | 36144 ft | 518 kts | 237° |
| 2026-05-03 20:59 | 36.37439 | -39.45848 | 36182 ft | 528 kts | 237° |
| 2026-05-03 21:00 | 35.99339 | -40.00962 | 36029 ft | 526 kts | 238° |
| 2026-05-03 21:00 | 35.87847 | -40.20078 | 35888 ft | 494 kts | 246° |
| 2026-05-03 21:00 | 35.28058 | -41.26643 | 36243 ft | 518 kts | 243° |
| 2026-05-03 21:00 | 34.62037 | -42.38672 | 36483 ft | 514 kts | 243° |
| 2026-05-03 21:01 | 33.64802 | -43.97452 | 37409 ft | 497 kts | 239° |
| 2026-05-03 21:01 | 33.31432 | -44.50824 | 36808 ft | 515 kts | 238° |
| 2026-05-03 21:01 | 32.96735 | -45.05214 | 36147 ft | 510 kts | 240° |
| 2026-05-03 21:02 | 32.33935 | -46.15868 | 36120 ft | 505 kts | 241° |
| 2026-05-03 21:02 | 31.70035 | -47.24613 | 36091 ft | 504 kts | 240° |
| 2026-05-03 21:03 | 31.04971 | -48.32274 | 36120 ft | 506 kts | 239° |
| 2026-05-03 21:03 | 30.38696 | -49.38986 | 36127 ft | 510 kts | 238° |
| 2026-05-03 21:04 | 29.67558 | -50.42564 | 36173 ft | 517 kts | 232° |
| 2026-05-03 21:04 | 29.04719 | -51.24663 | 36118 ft | 512 kts | 232° |
| 2026-05-03 21:05 | 28.29098 | -52.21007 | 36158 ft | 507 kts | 231° |
| 2026-05-03 21:05 | 27.53490 | -53.15101 | 36136 ft | 508 kts | 231° |
| 2026-05-03 21:06 | 26.76166 | -54.09224 | 36164 ft | 516 kts | 231° |
| 2026-05-03 21:06 | 25.97467 | -55.02945 | 36228 ft | 518 kts | 229° |
| 2026-05-03 21:07 | 25.12874 | -55.91172 | 36148 ft | 520 kts | 227° |
| 2026-05-03 21:07 | 24.28223 | -56.77990 | 36141 ft | 520 kts | 226° |
| 2026-05-03 21:08 | 23.43501 | -57.63230 | 36144 ft | 521 kts | 225° |
| 2026-05-03 21:08 | 22.57549 | -58.48138 | 36117 ft | 522 kts | 224° |
| 2026-05-03 21:09 | 21.70946 | -59.32194 | 36131 ft | 525 kts | 224° |
| 2026-05-03 21:09 | 20.84197 | -60.16450 | 36088 ft | 522 kts | 228° |
| 2026-05-03 21:10 | 20.02067 | -61.05006 | 36094 ft | 525 kts | 227° |
| 2026-05-03 21:10 | 19.19220 | -61.92326 | 36046 ft | 523 kts | 226° |
| 2026-05-03 21:11 | 18.77458 | -62.35988 | 33983 ft | 546 kts | 225° |
| 2026-05-03 21:11 | 18.58089 | -62.55880 | 35180 ft | 514 kts | 226° |
| 2026-05-03 21:11 | 18.55536 | -62.58592 | 34720 ft | 525 kts | 229° |
| 2026-05-03 21:11 | 18.53208 | -62.61477 | 34106 ft | 521 kts | 234° |
| 2026-05-03 21:12 | 18.51171 | -62.64602 | 33342 ft | 514 kts | 240° |
| 2026-05-03 21:12 | 18.49368 | -62.67836 | 32592 ft | 509 kts | 241° |
| 2026-05-03 21:12 | 18.47602 | -62.71053 | 31864 ft | 504 kts | 241° |
| 2026-05-03 21:12 | 18.45850 | -62.74240 | 31140 ft | 494 kts | 241° |
| 2026-05-03 21:13 | 18.44159 | -62.77289 | 30406 ft | 471 kts | 240° |
| 2026-05-03 21:13 | 18.42532 | -62.80197 | 29621 ft | 450 kts | 240° |
| 2026-05-03 21:13 | 18.40969 | -62.82974 | 28829 ft | 432 kts | 240° |
| 2026-05-03 21:13 | 18.39462 | -62.85642 | 28027 ft | 416 kts | 240° |
| 2026-05-03 21:14 | 18.38020 | -62.88191 | 27273 ft | 403 kts | 240° |
| 2026-05-03 21:14 | 18.36607 | -62.90689 | 26529 ft | 392 kts | 240° |
| 2026-05-03 21:14 | 18.35230 | -62.93123 | 25823 ft | 382 kts | 240° |
| 2026-05-03 21:14 | 18.33884 | -62.95500 | 25426 ft | 375 kts | 241° |
| 2026-05-03 21:15 | 18.32551 | -62.97857 | 25263 ft | 374 kts | 240° |
| 2026-05-03 21:15 | 18.31220 | -63.00212 | 25105 ft | 374 kts | 240° |
| 2026-05-03 21:15 | 18.29891 | -63.02558 | 25056 ft | 370 kts | 240° |
| 2026-05-03 21:15 | 18.28581 | -63.04872 | 25022 ft | 367 kts | 241° |
| 2026-05-03 21:16 | 18.27280 | -63.07169 | 24600 ft | 375 kts | 241° |
| 2026-05-03 21:16 | 18.25929 | -63.09555 | 23940 ft | 379 kts | 241° |
| 2026-05-03 21:16 | 18.24585 | -63.11922 | 23218 ft | 373 kts | 240° |
| 2026-05-03 21:16 | 18.23266 | -63.14244 | 22452 ft | 365 kts | 241° |
| 2026-05-03 21:17 | 18.21979 | -63.16511 | 21699 ft | 355 kts | 241° |
| 2026-05-03 21:17 | 18.21146 | -63.17978 | 21203 ft | 349 kts | 241° |
| 2026-05-03 21:17 | 18.19598 | -63.20907 | 20243 ft | 335 kts | 252° |
| 2026-05-03 21:17 | 18.19036 | -63.23205 | 19550 ft | 325 kts | 262° |
| 2026-05-03 21:18 | 18.18728 | -63.25533 | 18883 ft | 317 kts | 264° |
| 2026-05-03 21:18 | 18.18495 | -63.27816 | 18196 ft | 311 kts | 265° |
| 2026-05-03 21:18 | 18.18286 | -63.30061 | 17425 ft | 305 kts | 265° |
| 2026-05-03 21:18 | 18.18086 | -63.32268 | 16682 ft | 300 kts | 265° |
| 2026-05-03 21:19 | 18.17893 | -63.34440 | 15952 ft | 296 kts | 265° |
| 2026-05-03 21:19 | 18.17707 | -63.36584 | 15248 ft | 294 kts | 265° |
| 2026-05-03 21:19 | 18.17527 | -63.38716 | 14556 ft | 292 kts | 265° |
| 2026-05-03 21:19 | 18.17353 | -63.40833 | 13880 ft | 289 kts | 265° |
| 2026-05-03 21:20 | 18.17189 | -63.42906 | 13146 ft | 287 kts | 265° |
| 2026-05-03 21:20 | 18.17028 | -63.44990 | 12406 ft | 285 kts | 265° |
| 2026-05-03 21:20 | 18.16874 | -63.47062 | 11686 ft | 283 kts | 265° |
| 2026-05-03 21:20 | 18.16725 | -63.49114 | 10981 ft | 281 kts | 265° |
| 2026-05-03 21:21 | 18.16582 | -63.51157 | 10288 ft | 279 kts | 265° |
| 2026-05-03 21:21 | 18.16446 | -63.53191 | 9572 ft | 278 kts | 265° |
| 2026-05-03 21:21 | 18.16044 | -63.55174 | 8621 ft | 281 kts | 242° |
| 2026-05-03 21:21 | 18.14843 | -63.56787 | 7671 ft | 282 kts | 214° |
| 2026-05-03 21:22 | 18.13111 | -63.57635 | 6810 ft | 278 kts | 186° |
| 2026-05-03 21:22 | 18.11276 | -63.57508 | 6414 ft | 254 kts | 156° |
| 2026-05-03 21:22 | 18.09937 | -63.56512 | 6159 ft | 228 kts | 121° |
| 2026-05-03 21:22 | 18.09309 | -63.55035 | 6101 ft | 221 kts | 111° |
| 2026-05-03 21:23 | 18.08739 | -63.53514 | 6101 ft | 225 kts | 111° |
| 2026-05-03 21:23 | 18.08192 | -63.51979 | 6085 ft | 222 kts | 110° |
| 2026-05-03 21:23 | 18.07681 | -63.50460 | 6065 ft | 218 kts | 109° |
| 2026-05-03 21:23 | 18.07202 | -63.48971 | 5726 ft | 211 kts | 108° |
| 2026-05-03 21:24 | 18.06748 | -63.47515 | 5207 ft | 206 kts | 108° |
| 2026-05-03 21:24 | 18.06315 | -63.46098 | 4719 ft | 201 kts | 108° |
| 2026-05-03 21:24 | 18.05899 | -63.44718 | 4217 ft | 196 kts | 107° |
| 2026-05-03 21:24 | 18.05495 | -63.43366 | 3715 ft | 193 kts | 107° |
| 2026-05-03 21:25 | 18.05097 | -63.42022 | 3278 ft | 193 kts | 108° |
| 2026-05-03 21:25 | 18.04696 | -63.40664 | 2916 ft | 196 kts | 108° |
| 2026-05-03 21:25 | 18.04296 | -63.39308 | 2652 ft | 194 kts | 107° |
| 2026-05-03 21:25 | 18.03916 | -63.38010 | 2617 ft | 176 kts | 107° |
| 2026-05-03 21:26 | 18.03567 | -63.36817 | 2592 ft | 166 kts | 107° |
| 2026-05-03 21:26 | 18.03230 | -63.35667 | 2600 ft | 163 kts | 108° |
| 2026-05-03 21:26 | 18.02893 | -63.34516 | 2612 ft | 167 kts | 107° |
| 2026-05-03 21:26 | 18.02549 | -63.33337 | 2608 ft | 171 kts | 107° |
| 2026-05-03 21:27 | 18.02198 | -63.32137 | 2603 ft | 172 kts | 108° |
| 2026-05-03 21:27 | 18.01851 | -63.30952 | 2601 ft | 172 kts | 108° |
| 2026-05-03 21:27 | 18.01505 | -63.29748 | 2604 ft | 177 kts | 103° |
| 2026-05-03 21:27 | 18.01543 | -63.28337 | 2618 ft | 206 kts | 82° |
| 2026-05-03 21:28 | 18.01795 | -63.26838 | 2606 ft | 207 kts | 83° |
| 2026-05-03 21:28 | 18.02016 | -63.25350 | 2363 ft | 204 kts | 83° |
| 2026-05-03 21:28 | 18.02229 | -63.23890 | 2063 ft | 198 kts | 83° |
| 2026-05-03 21:28 | 18.02424 | -63.22544 | 1876 ft | 176 kts | 82° |
| 2026-05-03 21:29 | 18.02603 | -63.21319 | 1824 ft | 163 kts | 83° |
| 2026-05-03 21:29 | 18.02766 | -63.20189 | 1789 ft | 151 kts | 83° |
| 2026-05-03 21:29 | 18.02920 | -63.19102 | 1783 ft | 146 kts | 82° |
| 2026-05-03 21:29 | 18.03021 | -63.18402 | 1715 ft | 141 kts | 82° |
| 2026-05-03 21:30 | 18.03165 | -63.17401 | 1479 ft | 136 kts | 83° |
| 2026-05-03 21:30 | 18.03302 | -63.16434 | 1172 ft | 136 kts | 82° |
| 2026-05-03 21:30 | 18.03437 | -63.15459 | 814 ft | 133 kts | 84° |
| 2026-05-03 21:30 | 18.03569 | -63.14477 | 593 ft | 137 kts | 83° |
| 2026-05-03 21:31 | 18.03723 | -63.13516 | 373 ft | 133 kts | 82° |
| 2026-05-03 21:31 | 18.03863 | -63.12542 | 228 ft | 137 kts | 82° |
| 2026-05-03 21:31 | 18.03997 | -63.11555 | 42 ft | 135 kts | 82° |
| 2026-05-03 21:31 | 18.04115 | -63.10703 | 30 ft | 83 kts | 81° |
| 2026-05-03 21:32 | 18.04155 | -63.10437 | 29 ft | 12 kts | 81° |
| 2026-05-03 21:32 | 18.04179 | -63.10288 | 24 ft | 28 kts | 81° |
| 2026-05-03 21:32 | 18.04209 | -63.10082 | 24 ft | 17 kts | 81° |
| 2026-05-03 21:32 | 18.04232 | -63.09963 | 27 ft | 11 kts | 64° |
| 2026-05-03 21:33 | 18.04284 | -63.09886 | 28 ft | 14 kts | 66° |
| 2026-05-03 21:33 | 18.04267 | -63.09843 | 26 ft | 5 kts | 163° |
| 2026-05-03 21:33 | 18.04242 | -63.09869 | 29 ft | 8 kts | 252° |
| 2026-05-03 21:33 | 18.04220 | -63.09997 | 24 ft | 29 kts | 261° |
| 2026-05-03 21:34 | 18.04176 | -63.10318 | 26 ft | 58 kts | 262° |
| 2026-05-03 21:34 | 18.04115 | -63.10752 | 31 ft | 59 kts | 261° |
| 2026-05-03 21:34 | 18.04059 | -63.11134 | 27 ft | 30 kts | 261° |
| 2026-05-03 21:34 | 18.04056 | -63.11271 | 30 ft | 7 kts | 299° |
| 2026-05-03 21:35 | 18.04112 | -63.11296 | 29 ft | 12 kts | 343° |
| 2026-05-03 21:35 | 18.04211 | -63.11341 | 28 ft | 19 kts | 334° |
| 2026-05-03 21:35 | 18.04318 | -63.11361 | 29 ft | 2 kts | 353° |
| 2026-05-03 21:35 | 18.04326 | -63.11362 | 29 ft | 0 kts | 353° |